createdAt,value
2018-07-03T00:01:15.553Z,19.00
2018-07-03T00:03:44.798Z,18.95
2018-07-03T00:06:13.849Z,18.94
2018-07-03T00:08:42.974Z,18.90
2018-07-03T00:11:12.105Z,18.90
2018-07-03T00:13:41.369Z,18.88
2018-07-03T00:16:14.485Z,18.86
2018-07-03T00:18:43.729Z,18.83
2018-07-03T00:21:12.908Z,18.80
2018-07-03T00:23:42.073Z,18.73
2018-07-03T00:26:11.437Z,18.66
2018-07-03T00:28:40.662Z,18.59
2018-07-03T00:31:09.897Z,18.57
2018-07-03T00:33:39.119Z,18.54
2018-07-03T00:36:08.155Z,18.54
2018-07-03T00:38:37.200Z,18.56
2018-07-03T00:41:06.377Z,18.54
2018-07-03T00:43:35.699Z,18.55
2018-07-03T00:46:04.836Z,18.57
2018-07-03T00:48:33.986Z,18.61
2018-07-03T00:51:03.403Z,18.60
2018-07-03T00:53:32.485Z,18.57
2018-07-03T00:56:01.794Z,18.58
2018-07-03T00:58:30.974Z,18.59
2018-07-03T01:01:00.167Z,18.53
2018-07-03T01:03:29.481Z,18.53
2018-07-03T01:05:58.665Z,18.56
2018-07-03T01:08:27.890Z,18.56
2018-07-03T01:10:57.074Z,18.59
2018-07-03T01:13:26.266Z,18.58
2018-07-03T01:15:55.561Z,18.55
2018-07-03T01:18:24.771Z,18.51
2018-07-03T01:20:53.985Z,18.52
2018-07-03T01:23:23.162Z,18.60
2018-07-03T01:25:52.357Z,18.65
2018-07-03T01:28:21.628Z,18.69
2018-07-03T01:30:50.899Z,18.81
2018-07-03T01:33:19.876Z,18.85
2018-07-03T01:35:48.950Z,18.82
2018-07-03T01:38:18.165Z,18.81
2018-07-03T01:40:47.341Z,18.74
2018-07-03T01:43:16.659Z,18.70
2018-07-03T01:45:45.762Z,18.73
2018-07-03T01:48:14.933Z,18.69
2018-07-03T01:50:44.133Z,18.58
2018-07-03T01:53:13.333Z,18.60
2018-07-03T01:55:42.538Z,18.66
2018-07-03T01:58:12.097Z,18.88
2018-07-03T02:00:41.102Z,18.97
2018-07-03T02:03:09.860Z,18.62
2018-07-03T02:05:38.709Z,18.39
2018-07-03T02:08:07.496Z,18.25
2018-07-03T02:10:36.249Z,18.25
2018-07-03T02:13:04.982Z,18.25
2018-07-03T02:15:33.724Z,18.21
2018-07-03T02:18:02.437Z,18.20
2018-07-03T02:20:31.134Z,18.23
2018-07-03T02:22:59.921Z,18.24
2018-07-03T02:25:28.682Z,18.28
2018-07-03T02:27:57.405Z,18.22
2018-07-03T02:30:26.125Z,18.17
2018-07-03T02:32:54.853Z,18.14
2018-07-03T02:35:23.606Z,18.05
2018-07-03T02:37:52.318Z,18.01
2018-07-03T02:40:21.069Z,17.87
2018-07-03T02:42:49.779Z,18.01
2018-07-03T02:45:18.550Z,18.01
2018-07-03T02:47:47.332Z,18.03
2018-07-03T02:50:16.074Z,18.09
2018-07-03T02:52:44.799Z,18.03
2018-07-03T02:55:13.527Z,18.01
2018-07-03T02:57:42.310Z,18.03
2018-07-03T03:00:11.088Z,18.03
2018-07-03T03:02:39.800Z,18.10
2018-07-03T03:05:08.562Z,18.06
2018-07-03T03:07:37.416Z,18.14
2018-07-03T03:10:06.199Z,18.17
2018-07-03T03:12:35.105Z,18.24
2018-07-03T03:15:03.941Z,18.29
2018-07-03T03:17:32.793Z,18.27
2018-07-03T03:20:01.546Z,18.32
2018-07-03T03:22:30.397Z,18.37
2018-07-03T03:24:59.226Z,18.46
2018-07-03T03:27:28.035Z,18.47
2018-07-03T03:29:56.852Z,18.53
2018-07-03T03:32:25.727Z,18.60
2018-07-03T03:34:54.526Z,18.65
2018-07-03T03:37:23.261Z,18.72
2018-07-03T03:39:51.977Z,18.80
2018-07-03T03:42:20.782Z,18.85
2018-07-03T03:44:52.534Z,18.96
2018-07-03T03:47:21.260Z,18.98
2018-07-03T03:49:50.060Z,18.98
2018-07-03T03:52:18.857Z,19.05
2018-07-03T03:54:47.560Z,19.14
2018-07-03T03:57:16.265Z,19.30
2018-07-03T03:59:44.957Z,19.74
2018-07-03T04:02:13.754Z,20.30
2018-07-03T04:04:42.478Z,20.46
2018-07-03T04:07:11.261Z,21.20
2018-07-03T04:09:40.032Z,21.03
2018-07-03T04:12:08.910Z,20.84
2018-07-03T04:14:37.703Z,20.87
2018-07-03T04:17:06.618Z,21.22
2018-07-03T04:19:35.402Z,21.04
2018-07-03T04:22:04.110Z,20.56
2018-07-03T04:24:32.824Z,20.12
2018-07-03T04:27:01.522Z,19.80
2018-07-03T04:29:30.267Z,19.61
2018-07-03T04:31:59.021Z,19.43
2018-07-03T04:34:27.885Z,19.52
2018-07-03T04:36:56.642Z,19.55
2018-07-03T04:39:25.437Z,19.59
2018-07-03T04:41:54.150Z,19.62
2018-07-03T04:44:22.857Z,19.58
2018-07-03T04:46:51.617Z,19.70
2018-07-03T04:49:20.312Z,19.82
2018-07-03T04:51:49.026Z,19.95
2018-07-03T04:54:17.749Z,20.17
2018-07-03T04:56:46.471Z,20.46
2018-07-03T04:59:15.213Z,20.78
2018-07-03T05:01:43.930Z,21.07
2018-07-03T05:04:12.662Z,21.42
2018-07-03T05:06:41.383Z,22.14
2018-07-03T05:09:11.318Z,23.04
2018-07-03T05:11:40.074Z,23.55
2018-07-03T05:14:09.406Z,24.69
2018-07-03T05:16:38.506Z,24.66
2018-07-03T05:19:07.381Z,24.25
2018-07-03T05:21:36.081Z,24.05
2018-07-03T05:24:04.791Z,24.63
2018-07-03T05:26:33.495Z,26.92
2018-07-03T05:29:02.193Z,29.51
2018-07-03T05:31:31.011Z,32.20
2018-07-03T05:33:59.809Z,33.88
2018-07-03T05:36:28.540Z,34.62
2018-07-03T05:38:57.362Z,35.22
2018-07-03T05:41:26.090Z,36.21
2018-07-03T05:43:55.134Z,37.50
2018-07-03T05:46:23.825Z,38.09
2018-07-03T05:48:52.677Z,38.53
2018-07-03T05:51:21.409Z,38.86
2018-07-03T05:53:50.136Z,37.04
2018-07-03T05:56:18.973Z,36.11
2018-07-03T05:58:47.957Z,36.79
2018-07-03T06:01:16.690Z,37.30
2018-07-03T06:03:45.419Z,37.34
2018-07-03T06:06:14.145Z,37.35
2018-07-03T06:08:42.867Z,37.85
2018-07-03T06:11:11.570Z,36.86
2018-07-03T06:13:40.290Z,37.30
2018-07-03T06:16:09.033Z,37.87
2018-07-03T06:18:37.740Z,37.50
2018-07-03T06:21:06.532Z,37.95
2018-07-03T06:23:35.285Z,38.44
2018-07-03T06:26:04.141Z,38.40
2018-07-03T06:28:32.894Z,37.82
2018-07-03T06:31:01.599Z,36.65
2018-07-03T06:33:30.329Z,36.70
2018-07-03T06:35:59.050Z,35.08
2018-07-03T06:38:27.774Z,35.46
2018-07-03T06:40:56.513Z,36.30
2018-07-03T06:43:25.202Z,36.46
2018-07-03T06:45:53.915Z,36.64
2018-07-03T06:48:22.630Z,35.61
2018-07-03T06:50:51.345Z,35.92
2018-07-03T06:53:20.058Z,35.97
2018-07-03T06:55:49.072Z,35.51
2018-07-03T06:58:17.839Z,36.29
2018-07-03T07:00:47.422Z,35.98
2018-07-03T07:03:16.136Z,36.22
2018-07-03T07:05:44.907Z,36.28
2018-07-03T07:08:13.673Z,36.79
2018-07-03T07:10:42.381Z,36.96
2018-07-03T07:13:11.147Z,38.28
2018-07-03T07:15:39.841Z,38.43
2018-07-03T07:18:08.564Z,37.97
2018-07-03T07:20:37.300Z,38.81
2018-07-03T07:23:06.339Z,38.74
2018-07-03T07:25:35.069Z,38.70
2018-07-03T07:28:03.786Z,39.71
2018-07-03T07:30:32.494Z,40.25
2018-07-03T07:33:01.184Z,40.33
2018-07-03T07:35:29.907Z,40.30
2018-07-03T07:37:58.614Z,40.48
2018-07-03T07:40:27.331Z,40.44
2018-07-03T07:42:56.197Z,40.72
2018-07-03T07:45:24.892Z,40.35
2018-07-03T07:47:53.590Z,39.78
2018-07-03T07:50:22.474Z,39.96
2018-07-03T07:52:51.161Z,38.83
2018-07-03T07:55:19.853Z,39.33
2018-07-03T07:57:48.576Z,39.39
2018-07-03T08:00:17.322Z,39.11
2018-07-03T08:02:46.011Z,38.92
2018-07-03T08:05:14.840Z,38.12
2018-07-03T08:07:43.521Z,36.08
2018-07-03T08:10:12.201Z,37.56
2018-07-03T08:12:40.968Z,38.56
2018-07-03T08:15:09.746Z,38.67
2018-07-03T08:17:38.477Z,38.97
2018-07-03T08:20:07.190Z,38.81
2018-07-03T08:22:35.900Z,38.69
2018-07-03T08:25:04.697Z,38.15
2018-07-03T08:27:33.397Z,39.46
2018-07-03T08:30:02.130Z,39.56
2018-07-03T08:32:30.910Z,39.50
2018-07-03T08:34:59.628Z,38.93
2018-07-03T08:37:28.507Z,38.69
2018-07-03T08:39:57.206Z,38.44
2018-07-03T08:42:25.950Z,38.94
2018-07-03T08:44:54.664Z,38.56
2018-07-03T08:47:23.353Z,38.66
2018-07-03T08:49:52.053Z,38.40
2018-07-03T08:52:20.738Z,38.02
2018-07-03T08:54:49.497Z,38.68
2018-07-03T08:57:18.178Z,38.29
2018-07-03T08:59:46.858Z,37.60
2018-07-03T09:02:15.598Z,37.72
2018-07-03T09:04:44.701Z,38.67
2018-07-03T09:07:13.457Z,39.15
2018-07-03T09:09:42.200Z,38.63
2018-07-03T09:12:10.920Z,39.14
2018-07-03T09:14:39.611Z,39.42
2018-07-03T09:17:13.535Z,39.48
2018-07-03T09:19:42.639Z,38.45
2018-07-03T09:22:11.346Z,39.71
2018-07-03T09:24:40.245Z,40.02
2018-07-03T09:27:09.150Z,39.97
2018-07-03T09:29:37.846Z,40.01
2018-07-03T09:32:06.777Z,40.29
2018-07-03T09:34:36.347Z,40.10
2018-07-03T09:37:05.295Z,40.80
2018-07-03T09:39:34.038Z,40.44
2018-07-03T09:42:02.731Z,40.47
2018-07-03T09:44:31.434Z,40.92
2018-07-03T09:47:00.195Z,39.40
2018-07-03T09:49:28.931Z,38.69
2018-07-03T09:51:57.755Z,39.50
2018-07-03T09:54:26.479Z,39.67
2018-07-03T09:56:55.182Z,39.44
2018-07-03T09:59:24.070Z,39.37
2018-07-03T10:01:52.829Z,38.86
2018-07-03T10:04:21.589Z,38.42
2018-07-03T10:06:51.219Z,38.21
2018-07-03T10:09:19.927Z,38.06
2018-07-03T10:11:48.681Z,37.67
2018-07-03T10:14:17.384Z,38.68
2018-07-03T10:16:46.130Z,39.28
2018-07-03T10:19:15.232Z,39.85
2018-07-03T10:21:43.941Z,39.86
2018-07-03T10:24:12.653Z,38.86
2018-07-03T10:26:41.438Z,39.69
2018-07-03T10:29:10.161Z,40.33
2018-07-03T10:31:38.973Z,39.53
2018-07-03T10:34:07.666Z,38.81
2018-07-03T10:36:36.372Z,39.54
2018-07-03T10:39:08.440Z,39.37
2018-07-03T10:41:37.505Z,39.15
2018-07-03T10:44:06.447Z,40.38
2018-07-03T10:46:35.194Z,39.71
2018-07-03T10:49:03.902Z,38.67
2018-07-03T10:51:32.662Z,39.24
2018-07-03T10:54:01.414Z,40.67
2018-07-03T10:56:30.123Z,40.65
2018-07-03T10:58:58.820Z,40.58
2018-07-03T11:01:27.634Z,39.17
2018-07-03T11:03:56.371Z,38.32
2018-07-03T11:06:25.094Z,37.08
2018-07-03T11:08:53.793Z,38.24
2018-07-03T11:11:22.506Z,39.17
2018-07-03T11:13:51.298Z,38.05
2018-07-03T11:16:19.960Z,38.80
2018-07-03T11:18:48.702Z,39.14
2018-07-03T11:21:17.607Z,39.38
2018-07-03T11:23:46.359Z,38.72
2018-07-03T11:26:15.140Z,39.22
2018-07-03T11:28:43.951Z,39.51
2018-07-03T11:31:12.699Z,39.81
2018-07-03T11:33:41.474Z,38.28
2018-07-03T11:36:10.158Z,38.22
2018-07-03T11:38:38.874Z,38.02
2018-07-03T11:41:07.623Z,38.81
2018-07-03T11:43:36.518Z,38.50
2018-07-03T11:46:05.221Z,38.43
2018-07-03T11:48:33.950Z,38.88
2018-07-03T11:51:02.682Z,39.12
2018-07-03T11:53:31.499Z,38.81
2018-07-03T11:56:00.194Z,39.36
2018-07-03T11:58:28.984Z,38.22
2018-07-03T12:00:57.846Z,38.83
2018-07-03T12:03:26.590Z,39.31
2018-07-03T12:05:55.363Z,39.69
2018-07-03T12:08:24.133Z,39.69
2018-07-03T12:10:53.067Z,39.80
2018-07-03T12:13:21.862Z,39.30
2018-07-03T12:15:50.581Z,39.30
2018-07-03T12:18:24.522Z,38.17
2018-07-03T12:20:53.357Z,38.91
2018-07-03T12:23:22.124Z,39.39
2018-07-03T12:25:50.849Z,39.02
2018-07-03T12:28:19.647Z,39.60
2018-07-03T12:30:48.379Z,38.87
2018-07-03T12:33:17.102Z,38.38
2018-07-03T12:35:45.840Z,37.69
2018-07-03T12:38:14.591Z,37.04
2018-07-03T12:40:43.319Z,36.21
2018-07-03T12:43:12.080Z,35.55
2018-07-03T12:45:40.848Z,35.10
2018-07-03T12:48:09.557Z,34.89
2018-07-03T12:50:38.285Z,34.66
2018-07-03T12:53:07.441Z,34.32
2018-07-03T12:55:36.142Z,33.77
2018-07-03T12:58:04.892Z,33.47
2018-07-03T13:00:33.614Z,33.11
2018-07-03T13:03:02.330Z,33.31
2018-07-03T13:05:31.147Z,33.31
2018-07-03T13:07:59.909Z,33.67
2018-07-03T13:10:28.749Z,33.69
2018-07-03T13:12:57.490Z,33.67
2018-07-03T13:15:26.368Z,33.38
2018-07-03T13:17:55.099Z,33.47
2018-07-03T13:20:23.810Z,33.33
2018-07-03T13:22:52.633Z,33.44
2018-07-03T13:25:21.520Z,33.14
2018-07-03T13:27:50.253Z,33.24
2018-07-03T13:30:18.971Z,33.37
2018-07-03T13:32:47.698Z,33.52
2018-07-03T13:35:16.436Z,33.46
2018-07-03T13:37:45.145Z,33.33
2018-07-03T13:40:13.850Z,33.35
2018-07-03T13:42:42.831Z,33.39
2018-07-03T13:45:11.602Z,32.98
2018-07-03T13:47:40.409Z,32.72
2018-07-03T13:50:09.118Z,32.67
2018-07-03T13:52:37.825Z,32.54
2018-07-03T13:55:06.862Z,32.92
2018-07-03T13:57:35.588Z,33.03
2018-07-03T14:00:04.336Z,32.70
2018-07-03T14:02:33.074Z,32.64
2018-07-03T14:05:01.935Z,32.63
2018-07-03T14:07:36.923Z,32.59
2018-07-03T14:10:11.000Z,32.78
2018-07-03T14:12:45.001Z,32.69
2018-07-03T14:15:18.483Z,32.53
2018-07-03T14:17:50.248Z,31.95
2018-07-03T14:20:19.759Z,31.83
2018-07-03T14:22:48.874Z,31.92
2018-07-03T14:25:17.897Z,32.20
2018-07-03T14:27:51.156Z,32.34
2018-07-03T14:30:23.019Z,32.31
2018-07-03T14:32:52.321Z,32.21
2018-07-03T14:35:21.575Z,32.25
2018-07-03T14:37:50.738Z,32.00
2018-07-03T14:40:19.954Z,32.00
2018-07-03T14:42:49.147Z,32.07
2018-07-03T14:45:18.305Z,32.04
2018-07-03T14:47:47.503Z,31.92
2018-07-03T14:50:16.811Z,31.96
2018-07-03T14:52:46.097Z,31.91
2018-07-03T14:55:15.596Z,31.87
2018-07-03T14:57:44.818Z,31.78
2018-07-03T15:00:14.100Z,31.87
2018-07-03T15:02:43.498Z,32.01
2018-07-03T15:05:12.870Z,32.09
2018-07-03T15:07:41.634Z,32.08
2018-07-03T15:10:10.354Z,32.25
2018-07-03T15:12:39.075Z,32.48
2018-07-03T15:15:07.836Z,32.58
2018-07-03T15:17:36.606Z,32.71
2018-07-03T15:20:05.360Z,32.41
2018-07-03T15:22:34.169Z,32.56
2018-07-03T15:25:04.105Z,32.69
2018-07-03T15:27:37.089Z,32.72
2018-07-03T15:30:06.450Z,32.63
2018-07-03T15:32:35.762Z,32.68
2018-07-03T15:35:04.775Z,32.74
2018-07-03T15:37:34.063Z,32.84
2018-07-03T15:40:03.397Z,32.71
2018-07-03T15:42:32.810Z,32.42
2018-07-03T15:45:08.640Z,32.32
2018-07-03T15:47:37.628Z,32.21
2018-07-03T15:50:08.305Z,32.05
2018-07-03T15:52:37.508Z,31.96
2018-07-03T15:55:06.933Z,31.82
2018-07-03T15:57:36.345Z,31.77
2018-07-03T16:00:06.437Z,31.63
2018-07-03T16:02:35.822Z,31.54
2018-07-03T16:05:17.942Z,31.43
2018-07-03T16:08:06.782Z,31.23
2018-07-03T16:10:35.636Z,31.12
2018-07-03T16:13:04.403Z,31.10
2018-07-03T16:15:33.210Z,31.11
2018-07-03T16:18:01.910Z,31.06
2018-07-03T16:20:35.752Z,31.02
2018-07-03T16:23:04.606Z,30.97
2018-07-03T16:25:33.450Z,30.95
2018-07-03T16:28:02.153Z,30.98
2018-07-03T16:30:30.875Z,31.04
2018-07-03T16:32:59.606Z,31.05
2018-07-03T16:35:28.335Z,31.09
2018-07-03T16:37:57.082Z,31.10
2018-07-03T16:40:25.798Z,31.09
2018-07-03T16:42:54.500Z,31.03
2018-07-03T16:45:23.238Z,31.05
2018-07-03T16:47:51.994Z,30.98
2018-07-03T16:50:20.733Z,30.95
2018-07-03T16:52:49.643Z,30.83
2018-07-03T16:55:18.345Z,30.79
2018-07-03T16:57:47.111Z,30.73
2018-07-03T17:00:22.255Z,30.58
2018-07-03T17:02:51.020Z,30.49
2018-07-03T17:05:19.777Z,30.34
2018-07-03T17:07:48.576Z,30.22
2018-07-03T17:10:17.305Z,30.07
2018-07-03T17:12:46.427Z,29.90
2018-07-03T17:15:15.393Z,29.71
2018-07-03T17:17:44.117Z,29.53
2018-07-03T17:20:13.042Z,29.29
2018-07-03T17:22:41.769Z,29.09
2018-07-03T17:25:10.521Z,28.90
2018-07-03T17:27:39.275Z,28.70
2018-07-03T17:30:08.016Z,28.48
2018-07-03T17:32:36.768Z,28.33
2018-07-03T17:35:05.635Z,28.21
2018-07-03T17:37:34.357Z,28.17
2018-07-03T17:40:14.231Z,28.09
2018-07-03T17:42:53.987Z,27.77
2018-07-03T17:45:34.582Z,27.60
2018-07-03T17:48:05.678Z,27.49
2018-07-03T17:50:34.866Z,27.39
2018-07-03T17:53:03.579Z,27.24
2018-07-03T17:55:33.020Z,27.06
2018-07-03T17:58:01.839Z,27.16
2018-07-03T18:00:31.221Z,27.17
2018-07-03T18:03:00.166Z,27.13
2018-07-03T18:05:29.846Z,26.97
2018-07-03T18:07:58.929Z,26.97
2018-07-03T18:10:27.743Z,26.86
2018-07-03T18:12:56.449Z,26.85
2018-07-03T18:15:25.270Z,26.94
2018-07-03T18:17:53.953Z,26.72
2018-07-03T18:20:22.641Z,26.58
2018-07-03T18:22:51.354Z,26.34
2018-07-03T18:25:20.055Z,26.20
2018-07-03T18:27:48.801Z,25.97
2018-07-03T18:30:17.590Z,25.91
2018-07-03T18:32:46.395Z,25.77
2018-07-03T18:35:15.102Z,25.55
2018-07-03T18:37:43.845Z,25.35
2018-07-03T18:40:12.619Z,25.18
2018-07-03T18:42:41.323Z,25.06
2018-07-03T18:45:10.090Z,25.00
2018-07-03T18:47:38.914Z,24.95
2018-07-03T18:50:07.661Z,24.82
2018-07-03T18:52:36.411Z,24.75
2018-07-03T18:55:05.255Z,24.64
2018-07-03T18:57:34.057Z,24.57
2018-07-03T19:00:02.759Z,24.40
2018-07-03T19:02:31.481Z,24.24
2018-07-03T19:05:04.289Z,24.20
2018-07-03T19:07:33.202Z,24.23
2018-07-03T19:10:02.051Z,24.18
2018-07-03T19:12:30.757Z,24.11
2018-07-03T19:14:59.481Z,24.03
2018-07-03T19:17:28.284Z,23.93
2018-07-03T19:19:56.985Z,23.74
2018-07-03T19:22:25.812Z,23.71
2018-07-03T19:24:54.594Z,23.71
2018-07-03T19:27:23.393Z,23.71
2018-07-03T19:29:52.191Z,23.69
2018-07-03T19:32:21.021Z,23.68
2018-07-03T19:34:49.857Z,23.65
2018-07-03T19:37:18.684Z,23.62
2018-07-03T19:39:47.436Z,23.55
2018-07-03T19:42:16.262Z,23.46
2018-07-03T19:44:45.068Z,23.41
2018-07-03T19:47:13.814Z,23.38
2018-07-03T19:49:42.729Z,23.34
2018-07-03T19:52:11.688Z,23.23
2018-07-03T19:54:40.404Z,23.16
2018-07-03T19:57:09.181Z,23.10
2018-07-03T19:59:37.970Z,23.08
2018-07-03T20:02:06.790Z,23.09
2018-07-03T20:04:35.578Z,23.10
2018-07-03T20:07:04.358Z,23.09
2018-07-03T20:09:33.097Z,23.10
2018-07-03T20:12:02.067Z,23.06
2018-07-03T20:14:30.906Z,22.99
2018-07-03T20:17:00.556Z,22.98
2018-07-03T20:19:29.404Z,22.97
2018-07-03T20:21:58.162Z,22.91
2018-07-03T20:24:26.911Z,22.89
2018-07-03T20:26:55.662Z,22.89
2018-07-03T20:29:24.386Z,22.86
2018-07-03T20:31:53.113Z,22.77
2018-07-03T20:34:21.938Z,22.62
2018-07-03T20:36:50.721Z,22.54
2018-07-03T20:39:19.436Z,22.53
2018-07-03T20:41:48.165Z,22.51
2018-07-03T20:44:16.988Z,22.50
2018-07-03T20:46:45.732Z,22.46
2018-07-03T20:49:14.597Z,22.40
2018-07-03T20:51:43.333Z,22.35
2018-07-03T20:54:12.213Z,22.26
2018-07-03T20:56:40.977Z,22.21
2018-07-03T20:59:09.729Z,22.21
2018-07-03T21:01:38.439Z,22.15
2018-07-03T21:04:07.225Z,22.11
2018-07-03T21:06:35.997Z,22.13
2018-07-03T21:09:06.182Z,22.15
2018-07-03T21:11:35.014Z,22.14
2018-07-03T21:14:03.821Z,22.11
2018-07-03T21:16:32.633Z,22.15
2018-07-03T21:19:01.337Z,22.17
2018-07-03T21:21:30.034Z,22.19
2018-07-03T21:23:58.801Z,22.17
2018-07-03T21:26:27.502Z,22.21
2018-07-03T21:28:56.242Z,22.28
2018-07-03T21:31:24.949Z,22.25
2018-07-03T21:33:53.834Z,22.19
2018-07-03T21:36:22.706Z,22.18
2018-07-03T21:38:51.480Z,22.19
2018-07-03T21:41:20.198Z,22.26
2018-07-03T21:43:48.890Z,22.29
2018-07-03T21:46:17.642Z,22.30
2018-07-03T21:48:46.444Z,22.28
2018-07-03T21:51:15.144Z,22.25
2018-07-03T21:53:43.878Z,22.29
2018-07-03T21:56:12.573Z,22.32
2018-07-03T21:58:41.269Z,22.36
2018-07-03T22:01:09.957Z,22.27
2018-07-03T22:03:38.722Z,22.24
2018-07-03T22:06:07.498Z,22.16
2018-07-03T22:08:36.216Z,22.07
2018-07-03T22:11:04.953Z,22.03
2018-07-03T22:13:33.653Z,21.99
2018-07-03T22:16:02.383Z,21.93
2018-07-03T22:18:31.152Z,21.88
2018-07-03T22:20:59.890Z,21.85
2018-07-03T22:23:28.615Z,21.74
2018-07-03T22:25:57.366Z,21.69
2018-07-03T22:28:26.076Z,21.62
2018-07-03T22:30:54.859Z,21.59
2018-07-03T22:33:23.590Z,21.59
2018-07-03T22:35:52.348Z,21.62
2018-07-03T22:38:21.049Z,21.63
2018-07-03T22:40:49.752Z,21.69
2018-07-03T22:43:18.513Z,21.68
2018-07-03T22:45:47.211Z,21.64
2018-07-03T22:48:16.038Z,21.65
2018-07-03T22:50:44.743Z,21.64
2018-07-03T22:53:13.449Z,21.61
2018-07-03T22:55:44.774Z,21.64
2018-07-03T22:58:19.943Z,21.64
2018-07-03T23:00:54.360Z,21.63
2018-07-03T23:03:27.425Z,21.68
2018-07-03T23:06:00.472Z,21.68
2018-07-03T23:08:31.663Z,21.68
2018-07-03T23:11:00.483Z,21.61
2018-07-03T23:13:29.250Z,21.54
2018-07-03T23:15:57.983Z,21.51
2018-07-03T23:18:26.739Z,21.47
2018-07-03T23:20:55.584Z,21.46
2018-07-03T23:23:24.357Z,21.46
2018-07-03T23:25:53.052Z,21.46
2018-07-03T23:28:21.815Z,21.45
2018-07-03T23:30:50.628Z,21.39
2018-07-03T23:33:19.477Z,21.32
2018-07-03T23:35:48.190Z,21.28
2018-07-03T23:38:16.918Z,21.24
2018-07-03T23:40:46.350Z,21.21
2018-07-03T23:43:15.042Z,21.17
2018-07-03T23:46:04.754Z,21.16
2018-07-03T23:48:44.541Z,21.16
2018-07-03T23:51:24.290Z,21.13
2018-07-03T23:54:04.047Z,21.11
2018-07-03T23:56:43.722Z,21.08
2018-07-03T23:59:23.487Z,20.99
